Terminal Aerodrome Forecast
Issued by NWS

Home | Current Version | Previous Version | Text Only | Print | Product List | Glossary On
Versions: 1 2 3 4 5 6 7 8 9 10 11 12 13 14 15 16 17
000
FTUS45 KVEF 020535
TAFDAG
TAF
KDAG 020535Z 0206/0306 25008KT P6SM SCT220
     FM021600 33006KT P6SM FEW220
     FM030200 25015KT P6SM FEW150=

USA.gov is the U.S. government's official web portal to all federal, state and local government web resources and services.